Airport Name : North Island NAS

Other Name : North Island NAS

ICAO : KNZY

IATA : NZY

FAA : NZY

Latitude : 32.699219

Longitude : -117.21531

Country : United States

Local Date and Time : 28 Feb 2024 15:36

 

TAF (Terminal Aerodrome Forecast)

TAF KNZY 2823/2923 29010KT 9999 SCT015 QNH2996INS BECMG 2902/2904 VRB04KT 9999 BKN014 QNH3002INS FM290800 VRB04KT 8000 BR OVC014 QNH3006INS TEMPO 2909/2915 4800 BR BKN008 OVC012 FM291900 21007KT 8000 BR BKN015 QNH3012INS TX16/2921Z TN12/2815Z FS30160

 

METAR (METeorological Aerodrome Report)

KNZY 282252Z 28008KT 10SM SCT015 17/13 A3001 RMK AO2 SLP162 T01720128 $

KNZY 282152Z 30010KT 10SM SCT020 17/13 A3001 RMK AO2 SLP163 T01720128 $

KNZY 282052Z 30011KT 10SM FEW020 18/13 A3002 RMK AO2 SLP166 T01830128 58012 $

KNZY 281952Z 28010KT 10SM FEW020 18/13 A3004 RMK AO2 SLP173 T01830128 $